sensor_id;sensor_type;location;lat;lon;timestamp;P1;durP1;ratioP1;P2;durP2;ratioP2
77089;SDS011;66028;53.558;9.950;2023-12-22T00:02:24;16.43;;;2.73;;
77089;SDS011;66028;53.558;9.950;2023-12-22T00:04:50;16.25;;;2.80;;
77089;SDS011;66028;53.558;9.950;2023-12-22T00:07:16;14.70;;;2.40;;
77089;SDS011;66028;53.558;9.950;2023-12-22T00:09:41;12.50;;;3.00;;
77089;SDS011;66028;53.558;9.950;2023-12-22T00:12:06;16.87;;;3.60;;
77089;SDS011;66028;53.558;9.950;2023-12-22T00:14:32;20.00;;;2.63;;
77089;SDS011;66028;53.558;9.950;2023-12-22T00:16:57;11.23;;;2.77;;
77089;SDS011;66028;53.558;9.950;2023-12-22T00:19:22;11.40;;;2.07;;
77089;SDS011;66028;53.558;9.950;2023-12-22T00:21:47;23.57;;;2.90;;
77089;SDS011;66028;53.558;9.950;2023-12-22T00:24:13;15.77;;;2.00;;
77089;SDS011;66028;53.558;9.950;2023-12-22T00:26:38;13.80;;;2.43;;
77089;SDS011;66028;53.558;9.950;2023-12-22T00:29:03;20.50;;;4.43;;
77089;SDS011;66028;53.558;9.950;2023-12-22T00:31:28;14.47;;;2.60;;
77089;SDS011;66028;53.558;9.950;2023-12-22T00:33:54;21.27;;;2.80;;
77089;SDS011;66028;53.558;9.950;2023-12-22T00:36:19;16.30;;;2.33;;
77089;SDS011;66028;53.558;9.950;2023-12-22T00:38:48;13.88;;;2.03;;
77089;SDS011;66028;53.558;9.950;2023-12-22T00:41:13;9.60;;;2.10;;
77089;SDS011;66028;53.558;9.950;2023-12-22T00:43:38;13.35;;;2.70;;
77089;SDS011;66028;53.558;9.950;2023-12-22T00:46:03;10.30;;;2.10;;
77089;SDS011;66028;53.558;9.950;2023-12-22T00:48:29;16.77;;;2.77;;
77089;SDS011;66028;53.558;9.950;2023-12-22T00:50:54;11.80;;;2.27;;
77089;SDS011;66028;53.558;9.950;2023-12-22T00:53:19;13.90;;;1.80;;
77089;SDS011;66028;53.558;9.950;2023-12-22T00:55:44;8.83;;;2.17;;
77089;SDS011;66028;53.558;9.950;2023-12-22T00:58:11;14.57;;;2.03;;
77089;SDS011;66028;53.558;9.950;2023-12-22T01:00:37;12.03;;;2.50;;
77089;SDS011;66028;53.558;9.950;2023-12-22T01:03:02;18.80;;;2.57;;
77089;SDS011;66028;53.558;9.950;2023-12-22T01:05:28;7.35;;;1.50;;
77089;SDS011;66028;53.558;9.950;2023-12-22T01:07:53;10.30;;;1.73;;
77089;SDS011;66028;53.558;9.950;2023-12-22T01:10:18;11.87;;;2.00;;
77089;SDS011;66028;53.558;9.950;2023-12-22T01:12:43;10.60;;;1.13;;
77089;SDS011;66028;53.558;9.950;2023-12-22T01:15:09;9.17;;;1.53;;
77089;SDS011;66028;53.558;9.950;2023-12-22T01:17:34;5.07;;;1.23;;
77089;SDS011;66028;53.558;9.950;2023-12-22T01:19:59;7.17;;;0.87;;
77089;SDS011;66028;53.558;9.950;2023-12-22T01:22:25;4.43;;;1.10;;
77089;SDS011;66028;53.558;9.950;2023-12-22T01:24:50;6.90;;;1.03;;
77089;SDS011;66028;53.558;9.950;2023-12-22T01:27:15;5.57;;;1.00;;
77089;SDS011;66028;53.558;9.950;2023-12-22T01:29:40;5.80;;;0.97;;
77089;SDS011;66028;53.558;9.950;2023-12-22T01:32:06;5.60;;;0.50;;
77089;SDS011;66028;53.558;9.950;2023-12-22T01:34:31;5.03;;;0.70;;
77089;SDS011;66028;53.558;9.950;2023-12-22T01:36:56;6.15;;;0.70;;
77089;SDS011;66028;53.558;9.950;2023-12-22T01:39:22;3.07;;;0.50;;
77089;SDS011;66028;53.558;9.950;2023-12-22T01:41:47;2.30;;;0.30;;
77089;SDS011;66028;53.558;9.950;2023-12-22T01:44:12;3.55;;;0.40;;
77089;SDS011;66028;53.558;9.950;2023-12-22T01:46:38;2.23;;;0.20;;
77089;SDS011;66028;53.558;9.950;2023-12-22T01:49:04;2.03;;;0.30;;
77089;SDS011;66028;53.558;9.950;2023-12-22T01:51:30;1.67;;;0.40;;
77089;SDS011;66028;53.558;9.950;2023-12-22T01:53:57;2.15;;;0.25;;
77089;SDS011;66028;53.558;9.950;2023-12-22T01:56:22;2.23;;;0.30;;
77089;SDS011;66028;53.558;9.950;2023-12-22T01:58:49;6.15;;;0.88;;
77089;SDS011;66028;53.558;9.950;2023-12-22T02:01:17;6.03;;;0.73;;
77089;SDS011;66028;53.558;9.950;2023-12-22T02:03:43;3.78;;;0.68;;
77089;SDS011;66028;53.558;9.950;2023-12-22T02:06:09;5.63;;;0.43;;
77089;SDS011;66028;53.558;9.950;2023-12-22T02:08:35;5.50;;;0.85;;
77089;SDS011;66028;53.558;9.950;2023-12-22T02:11:01;5.15;;;0.50;;
77089;SDS011;66028;53.558;9.950;2023-12-22T02:13:27;11.90;;;1.00;;
77089;SDS011;66028;53.558;9.950;2023-12-22T02:15:55;8.15;;;0.80;;
77089;SDS011;66028;53.558;9.950;2023-12-22T02:18:33;6.30;;;0.60;;
77089;SDS011;66028;53.558;9.950;2023-12-22T02:20:59;8.25;;;1.40;;
77089;SDS011;66028;53.558;9.950;2023-12-22T02:23:25;4.40;;;0.63;;
77089;SDS011;66028;53.558;9.950;2023-12-22T02:25:50;4.20;;;0.50;;
77089;SDS011;66028;53.558;9.950;2023-12-22T02:28:22;4.00;;;0.93;;
77089;SDS011;66028;53.558;9.950;2023-12-22T02:30:56;7.13;;;1.02;;
77089;SDS011;66028;53.558;9.950;2023-12-22T02:33:31;6.07;;;1.08;;
77089;SDS011;66028;53.558;9.950;2023-12-22T02:36:01;7.57;;;1.33;;
77089;SDS011;66028;53.558;9.950;2023-12-22T02:38:28;5.93;;;0.80;;
77089;SDS011;66028;53.558;9.950;2023-12-22T02:40:55;9.80;;;1.20;;
77089;SDS011;66028;53.558;9.950;2023-12-22T02:43:21;5.40;;;0.68;;
77089;SDS011;66028;53.558;9.950;2023-12-22T02:45:49;8.73;;;1.27;;
77089;SDS011;66028;53.558;9.950;2023-12-22T02:48:15;10.02;;;0.90;;
77089;SDS011;66028;53.558;9.950;2023-12-22T02:50:41;9.03;;;1.40;;
77089;SDS011;66028;53.558;9.950;2023-12-22T02:53:06;9.03;;;1.13;;
77089;SDS011;66028;53.558;9.950;2023-12-22T02:55:31;3.73;;;0.77;;
77089;SDS011;66028;53.558;9.950;2023-12-22T02:57:56;4.67;;;0.67;;
77089;SDS011;66028;53.558;9.950;2023-12-22T03:00:22;7.00;;;0.70;;
77089;SDS011;66028;53.558;9.950;2023-12-22T03:02:47;3.83;;;0.30;;
77089;SDS011;66028;53.558;9.950;2023-12-22T03:05:12;5.40;;;1.10;;
77089;SDS011;66028;53.558;9.950;2023-12-22T03:07:37;2.93;;;0.30;;
77089;SDS011;66028;53.558;9.950;2023-12-22T03:10:03;0.63;;;0.13;;
77089;SDS011;66028;53.558;9.950;2023-12-22T03:12:28;1.25;;;0.10;;
77089;SDS011;66028;53.558;9.950;2023-12-22T03:14:53;2.20;;;0.30;;
77089;SDS011;66028;53.558;9.950;2023-12-22T03:17:19;3.90;;;0.40;;
77089;SDS011;66028;53.558;9.950;2023-12-22T03:19:44;0.40;;;0.17;;
77089;SDS011;66028;53.558;9.950;2023-12-22T03:22:09;0.90;;;0.30;;
77089;SDS011;66028;53.558;9.950;2023-12-22T03:24:34;1.73;;;0.27;;
77089;SDS011;66028;53.558;9.950;2023-12-22T03:27:01;2.28;;;0.30;;
77089;SDS011;66028;53.558;9.950;2023-12-22T03:29:26;2.37;;;0.30;;
77089;SDS011;66028;53.558;9.950;2023-12-22T03:31:52;2.63;;;0.40;;
77089;SDS011;66028;53.558;9.950;2023-12-22T03:34:17;3.50;;;0.33;;
77089;SDS011;66028;53.558;9.950;2023-12-22T03:36:42;2.07;;;0.20;;
77089;SDS011;66028;53.558;9.950;2023-12-22T03:39:07;4.73;;;0.83;;
77089;SDS011;66028;53.558;9.950;2023-12-22T03:41:33;3.37;;;0.60;;
77089;SDS011;66028;53.558;9.950;2023-12-22T03:43:59;4.45;;;0.50;;
77089;SDS011;66028;53.558;9.950;2023-12-22T03:46:24;4.80;;;0.77;;
77089;SDS011;66028;53.558;9.950;2023-12-22T03:48:52;1.60;;;0.30;;
77089;SDS011;66028;53.558;9.950;2023-12-22T03:51:18;8.70;;;1.55;;
77089;SDS011;66028;53.558;9.950;2023-12-22T03:53:44;5.60;;;0.98;;
77089;SDS011;66028;53.558;9.950;2023-12-22T03:56:09;3.77;;;0.80;;
77089;SDS011;66028;53.558;9.950;2023-12-22T03:58:35;5.00;;;0.70;;
77089;SDS011;66028;53.558;9.950;2023-12-22T04:03:26;7.65;;;0.75;;
77089;SDS011;66028;53.558;9.950;2023-12-22T04:05:51;8.20;;;0.70;;
77089;SDS011;66028;53.558;9.950;2023-12-22T04:08:16;4.45;;;0.50;;
77089;SDS011;66028;53.558;9.950;2023-12-22T04:10:42;7.77;;;1.03;;
77089;SDS011;66028;53.558;9.950;2023-12-22T04:15:33;5.70;;;0.67;;
77089;SDS011;66028;53.558;9.950;2023-12-22T04:17:58;2.87;;;0.80;;
77089;SDS011;66028;53.558;9.950;2023-12-22T04:20:24;4.27;;;0.70;;
77089;SDS011;66028;53.558;9.950;2023-12-22T04:22:49;4.95;;;0.65;;
77089;SDS011;66028;53.558;9.950;2023-12-22T04:25:15;9.03;;;1.70;;
77089;SDS011;66028;53.558;9.950;2023-12-22T04:27:41;8.75;;;0.93;;
77089;SDS011;66028;53.558;9.950;2023-12-22T04:30:07;8.75;;;1.48;;
77089;SDS011;66028;53.558;9.950;2023-12-22T04:32:33;7.53;;;1.42;;
77089;SDS011;66028;53.558;9.950;2023-12-22T04:34:58;3.70;;;0.37;;
77089;SDS011;66028;53.558;9.950;2023-12-22T04:37:23;8.47;;;1.03;;
77089;SDS011;66028;53.558;9.950;2023-12-22T04:39:49;7.30;;;1.20;;
77089;SDS011;66028;53.558;9.950;2023-12-22T04:42:14;10.30;;;0.90;;
77089;SDS011;66028;53.558;9.950;2023-12-22T04:44:39;4.93;;;0.57;;
77089;SDS011;66028;53.558;9.950;2023-12-22T04:47:05;3.50;;;0.30;;
77089;SDS011;66028;53.558;9.950;2023-12-22T04:49:30;3.13;;;0.60;;
77089;SDS011;66028;53.558;9.950;2023-12-22T04:51:55;4.20;;;1.33;;
77089;SDS011;66028;53.558;9.950;2023-12-22T04:54:21;7.27;;;0.63;;
77089;SDS011;66028;53.558;9.950;2023-12-22T04:56:46;7.27;;;0.93;;
77089;SDS011;66028;53.558;9.950;2023-12-22T04:59:11;4.73;;;1.00;;
77089;SDS011;66028;53.558;9.950;2023-12-22T05:01:36;5.43;;;1.00;;
77089;SDS011;66028;53.558;9.950;2023-12-22T05:04:02;6.83;;;0.50;;
77089;SDS011;66028;53.558;9.950;2023-12-22T05:06:27;6.27;;;1.13;;
77089;SDS011;66028;53.558;9.950;2023-12-22T05:08:54;5.00;;;0.82;;
77089;SDS011;66028;53.558;9.950;2023-12-22T05:11:19;9.15;;;0.63;;
77089;SDS011;66028;53.558;9.950;2023-12-22T05:13:45;5.65;;;1.27;;
77089;SDS011;66028;53.558;9.950;2023-12-22T05:16:10;7.55;;;1.10;;
77089;SDS011;66028;53.558;9.950;2023-12-22T05:18:36;2.87;;;0.67;;
77089;SDS011;66028;53.558;9.950;2023-12-22T05:21:01;3.40;;;0.47;;
77089;SDS011;66028;53.558;9.950;2023-12-22T05:23:26;7.60;;;0.67;;
77089;SDS011;66028;53.558;9.950;2023-12-22T05:25:51;4.17;;;0.80;;
77089;SDS011;66028;53.558;9.950;2023-12-22T05:28:17;4.60;;;0.80;;
77089;SDS011;66028;53.558;9.950;2023-12-22T05:30:42;6.50;;;0.77;;
77089;SDS011;66028;53.558;9.950;2023-12-22T05:33:07;5.10;;;1.08;;
77089;SDS011;66028;53.558;9.950;2023-12-22T05:35:33;7.93;;;1.23;;
77089;SDS011;66028;53.558;9.950;2023-12-22T05:37:58;4.63;;;1.07;;
77089;SDS011;66028;53.558;9.950;2023-12-22T05:40:23;10.93;;;1.03;;
77089;SDS011;66028;53.558;9.950;2023-12-22T05:42:48;7.77;;;0.70;;
77089;SDS011;66028;53.558;9.950;2023-12-22T05:45:14;7.17;;;0.57;;
77089;SDS011;66028;53.558;9.950;2023-12-22T05:47:39;3.03;;;0.40;;
77089;SDS011;66028;53.558;9.950;2023-12-22T05:50:05;6.03;;;0.80;;
77089;SDS011;66028;53.558;9.950;2023-12-22T05:52:30;5.40;;;0.55;;
77089;SDS011;66028;53.558;9.950;2023-12-22T05:54:56;4.43;;;0.60;;
77089;SDS011;66028;53.558;9.950;2023-12-22T05:57:21;3.03;;;0.40;;
77089;SDS011;66028;53.558;9.950;2023-12-22T05:59:46;7.07;;;0.70;;
77089;SDS011;66028;53.558;9.950;2023-12-22T06:02:11;1.43;;;0.40;;
77089;SDS011;66028;53.558;9.950;2023-12-22T06:07:03;3.13;;;0.43;;
77089;SDS011;66028;53.558;9.950;2023-12-22T06:09:29;4.75;;;0.60;;
77089;SDS011;66028;53.558;9.950;2023-12-22T06:11:54;3.10;;;0.50;;
77089;SDS011;66028;53.558;9.950;2023-12-22T06:14:19;5.37;;;0.50;;
77089;SDS011;66028;53.558;9.950;2023-12-22T06:16:44;5.20;;;0.60;;
77089;SDS011;66028;53.558;9.950;2023-12-22T06:19:10;6.23;;;0.70;;
77089;SDS011;66028;53.558;9.950;2023-12-22T06:21:38;9.40;;;0.97;;
77089;SDS011;66028;53.558;9.950;2023-12-22T06:24:04;4.43;;;0.50;;
77089;SDS011;66028;53.558;9.950;2023-12-22T06:26:30;7.07;;;0.85;;
77089;SDS011;66028;53.558;9.950;2023-12-22T06:28:55;4.27;;;0.40;;
77089;SDS011;66028;53.558;9.950;2023-12-22T06:31:21;11.00;;;1.00;;
77089;SDS011;66028;53.558;9.950;2023-12-22T06:33:47;9.75;;;1.63;;
77089;SDS011;66028;53.558;9.950;2023-12-22T06:38:46;7.45;;;1.45;;
77089;SDS011;66028;53.558;9.950;2023-12-22T06:41:19;9.45;;;1.25;;
77089;SDS011;66028;53.558;9.950;2023-12-22T06:43:45;5.25;;;1.00;;
77089;SDS011;66028;53.558;9.950;2023-12-22T06:46:20;6.83;;;1.60;;
77089;SDS011;66028;53.558;9.950;2023-12-22T06:48:52;16.77;;;1.75;;
77089;SDS011;66028;53.558;9.950;2023-12-22T06:51:19;7.40;;;0.88;;
77089;SDS011;66028;53.558;9.950;2023-12-22T06:53:52;12.48;;;2.00;;
77089;SDS011;66028;53.558;9.950;2023-12-22T06:56:21;15.23;;;2.45;;
77089;SDS011;66028;53.558;9.950;2023-12-22T06:58:49;11.07;;;1.90;;
77089;SDS011;66028;53.558;9.950;2023-12-22T07:03:47;14.77;;;2.38;;
77089;SDS011;66028;53.558;9.950;2023-12-22T07:06:13;8.57;;;1.67;;
77089;SDS011;66028;53.558;9.950;2023-12-22T07:08:42;16.55;;;2.30;;
77089;SDS011;66028;53.558;9.950;2023-12-22T07:11:09;14.48;;;2.28;;
77089;SDS011;66028;53.558;9.950;2023-12-22T07:13:35;12.00;;;1.67;;
77089;SDS011;66028;53.558;9.950;2023-12-22T07:16:00;12.50;;;2.08;;
77089;SDS011;66028;53.558;9.950;2023-12-22T07:18:27;18.25;;;1.98;;
77089;SDS011;66028;53.558;9.950;2023-12-22T07:20:55;10.95;;;1.95;;
77089;SDS011;66028;53.558;9.950;2023-12-22T07:23:20;9.68;;;2.03;;
77089;SDS011;66028;53.558;9.950;2023-12-22T07:25:46;10.20;;;1.87;;
77089;SDS011;66028;53.558;9.950;2023-12-22T07:28:11;14.18;;;1.88;;
77089;SDS011;66028;53.558;9.950;2023-12-22T07:30:36;14.37;;;2.87;;
77089;SDS011;66028;53.558;9.950;2023-12-22T07:33:02;11.63;;;2.30;;
77089;SDS011;66028;53.558;9.950;2023-12-22T07:35:27;11.57;;;2.38;;
77089;SDS011;66028;53.558;9.950;2023-12-22T07:37:53;8.52;;;1.40;;
77089;SDS011;66028;53.558;9.950;2023-12-22T07:40:19;7.47;;;0.90;;
77089;SDS011;66028;53.558;9.950;2023-12-22T07:42:45;8.80;;;1.38;;
77089;SDS011;66028;53.558;9.950;2023-12-22T07:45:10;8.20;;;1.27;;
77089;SDS011;66028;53.558;9.950;2023-12-22T07:47:36;6.70;;;1.08;;
77089;SDS011;66028;53.558;9.950;2023-12-22T07:50:02;8.18;;;1.48;;
77089;SDS011;66028;53.558;9.950;2023-12-22T07:52:28;5.20;;;0.98;;
77089;SDS011;66028;53.558;9.950;2023-12-22T07:54:53;11.97;;;1.60;;
77089;SDS011;66028;53.558;9.950;2023-12-22T07:57:18;7.43;;;0.83;;
77089;SDS011;66028;53.558;9.950;2023-12-22T07:59:43;6.07;;;1.03;;
77089;SDS011;66028;53.558;9.950;2023-12-22T08:02:09;8.00;;;1.23;;
77089;SDS011;66028;53.558;9.950;2023-12-22T08:04:34;11.73;;;1.27;;
77089;SDS011;66028;53.558;9.950;2023-12-22T08:06:59;10.40;;;1.20;;
77089;SDS011;66028;53.558;9.950;2023-12-22T08:09:24;5.23;;;1.50;;
77089;SDS011;66028;53.558;9.950;2023-12-22T08:11:50;8.40;;;1.87;;
77089;SDS011;66028;53.558;9.950;2023-12-22T08:14:18;10.35;;;1.17;;
77089;SDS011;66028;53.558;9.950;2023-12-22T08:16:44;4.03;;;1.25;;
77089;SDS011;66028;53.558;9.950;2023-12-22T08:19:09;4.55;;;0.70;;
77089;SDS011;66028;53.558;9.950;2023-12-22T08:21:35;6.35;;;0.57;;
77089;SDS011;66028;53.558;9.950;2023-12-22T08:24:00;7.40;;;1.25;;
77089;SDS011;66028;53.558;9.950;2023-12-22T08:26:26;4.60;;;0.88;;
77089;SDS011;66028;53.558;9.950;2023-12-22T08:28:51;5.63;;;0.77;;
77089;SDS011;66028;53.558;9.950;2023-12-22T08:31:16;4.57;;;0.90;;
77089;SDS011;66028;53.558;9.950;2023-12-22T08:33:42;9.88;;;0.90;;
77089;SDS011;66028;53.558;9.950;2023-12-22T08:36:08;11.13;;;1.23;;
77089;SDS011;66028;53.558;9.950;2023-12-22T08:38:34;15.05;;;1.80;;
77089;SDS011;66028;53.558;9.950;2023-12-22T08:40:59;11.17;;;1.73;;
77089;SDS011;66028;53.558;9.950;2023-12-22T08:43:24;8.43;;;1.97;;
77089;SDS011;66028;53.558;9.950;2023-12-22T08:45:50;7.82;;;1.52;;
77089;SDS011;66028;53.558;9.950;2023-12-22T08:48:15;9.60;;;1.73;;
77089;SDS011;66028;53.558;9.950;2023-12-22T08:50:41;7.47;;;1.40;;
77089;SDS011;66028;53.558;9.950;2023-12-22T08:53:06;8.25;;;1.15;;
77089;SDS011;66028;53.558;9.950;2023-12-22T08:55:31;3.77;;;0.67;;
77089;SDS011;66028;53.558;9.950;2023-12-22T08:57:57;5.93;;;0.87;;
77089;SDS011;66028;53.558;9.950;2023-12-22T09:00:22;9.23;;;1.00;;
77089;SDS011;66028;53.558;9.950;2023-12-22T09:02:47;3.63;;;0.50;;
77089;SDS011;66028;53.558;9.950;2023-12-22T09:05:12;8.13;;;1.03;;
77089;SDS011;66028;53.558;9.950;2023-12-22T09:07:38;3.50;;;0.77;;
77089;SDS011;66028;53.558;9.950;2023-12-22T09:10:04;3.55;;;0.55;;
77089;SDS011;66028;53.558;9.950;2023-12-22T09:12:29;5.95;;;1.17;;
77089;SDS011;66028;53.558;9.950;2023-12-22T09:14:55;7.03;;;1.17;;
77089;SDS011;66028;53.558;9.950;2023-12-22T09:17:20;5.30;;;0.80;;
77089;SDS011;66028;53.558;9.950;2023-12-22T09:19:45;1.80;;;0.57;;
77089;SDS011;66028;53.558;9.950;2023-12-22T09:22:11;6.27;;;0.63;;
77089;SDS011;66028;53.558;9.950;2023-12-22T09:24:37;3.15;;;0.68;;
77089;SDS011;66028;53.558;9.950;2023-12-22T09:29:29;3.90;;;0.50;;
77089;SDS011;66028;53.558;9.950;2023-12-22T09:31:56;3.15;;;0.80;;
77089;SDS011;66028;53.558;9.950;2023-12-22T09:34:22;6.17;;;0.83;;
77089;SDS011;66028;53.558;9.950;2023-12-22T09:39:13;5.97;;;0.83;;
77089;SDS011;66028;53.558;9.950;2023-12-22T09:41:41;8.50;;;1.20;;
77089;SDS011;66028;53.558;9.950;2023-12-22T09:44:12;9.55;;;1.00;;
77089;SDS011;66028;53.558;9.950;2023-12-22T09:46:38;6.15;;;1.58;;
77089;SDS011;66028;53.558;9.950;2023-12-22T09:49:05;5.40;;;0.98;;
77089;SDS011;66028;53.558;9.950;2023-12-22T09:51:31;13.15;;;1.88;;
77089;SDS011;66028;53.558;9.950;2023-12-22T09:53:58;14.68;;;1.80;;
77089;SDS011;66028;53.558;9.950;2023-12-22T09:56:24;8.20;;;1.00;;
77089;SDS011;66028;53.558;9.950;2023-12-22T09:58:51;5.78;;;1.02;;
77089;SDS011;66028;53.558;9.950;2023-12-22T10:01:18;9.40;;;1.10;;
77089;SDS011;66028;53.558;9.950;2023-12-22T10:03:47;7.20;;;1.20;;
77089;SDS011;66028;53.558;9.950;2023-12-22T10:06:13;6.55;;;1.05;;
77089;SDS011;66028;53.558;9.950;2023-12-22T10:08:38;7.70;;;1.47;;
77089;SDS011;66028;53.558;9.950;2023-12-22T10:11:04;6.00;;;1.38;;
77089;SDS011;66028;53.558;9.950;2023-12-22T10:15:58;8.98;;;0.70;;
77089;SDS011;66028;53.558;9.950;2023-12-22T10:18:24;7.22;;;1.30;;
77089;SDS011;66028;53.558;9.950;2023-12-22T10:20:49;13.03;;;1.73;;
77089;SDS011;66028;53.558;9.950;2023-12-22T10:23:15;9.93;;;0.80;;
77089;SDS011;66028;53.558;9.950;2023-12-22T10:25:40;8.43;;;1.40;;
77089;SDS011;66028;53.558;9.950;2023-12-22T10:28:09;9.63;;;1.20;;
77089;SDS011;66028;53.558;9.950;2023-12-22T10:30:35;6.75;;;1.17;;
77089;SDS011;66028;53.558;9.950;2023-12-22T10:33:03;8.90;;;1.92;;
77089;SDS011;66028;53.558;9.950;2023-12-22T10:35:29;9.07;;;1.10;;
77089;SDS011;66028;53.558;9.950;2023-12-22T10:37:55;14.38;;;1.92;;
77089;SDS011;66028;53.558;9.950;2023-12-22T10:40:21;8.23;;;0.85;;
77089;SDS011;66028;53.558;9.950;2023-12-22T10:42:48;6.20;;;0.70;;
77089;SDS011;66028;53.558;9.950;2023-12-22T10:45:14;9.73;;;1.48;;
77089;SDS011;66028;53.558;9.950;2023-12-22T10:47:42;7.80;;;1.00;;
77089;SDS011;66028;53.558;9.950;2023-12-22T10:50:07;7.83;;;1.00;;
77089;SDS011;66028;53.558;9.950;2023-12-22T10:52:33;9.27;;;1.55;;
77089;SDS011;66028;53.558;9.950;2023-12-22T10:54:59;9.75;;;1.85;;
77089;SDS011;66028;53.558;9.950;2023-12-22T10:59:51;10.27;;;1.45;;
77089;SDS011;66028;53.558;9.950;2023-12-22T11:02:18;9.35;;;1.30;;
77089;SDS011;66028;53.558;9.950;2023-12-22T11:04:47;9.15;;;1.45;;
77089;SDS011;66028;53.558;9.950;2023-12-22T11:07:22;7.13;;;1.48;;
77089;SDS011;66028;53.558;9.950;2023-12-22T11:09:50;5.78;;;1.05;;
77089;SDS011;66028;53.558;9.950;2023-12-22T11:12:16;10.95;;;1.80;;
77089;SDS011;66028;53.558;9.950;2023-12-22T11:14:43;5.80;;;1.23;;
77089;SDS011;66028;53.558;9.950;2023-12-22T11:17:10;9.82;;;1.52;;
77089;SDS011;66028;53.558;9.950;2023-12-22T11:19:37;4.90;;;0.93;;
77089;SDS011;66028;53.558;9.950;2023-12-22T11:22:05;3.95;;;0.88;;
77089;SDS011;66028;53.558;9.950;2023-12-22T11:24:32;4.53;;;1.52;;
77089;SDS011;66028;53.558;9.950;2023-12-22T11:26:59;4.57;;;0.70;;
77089;SDS011;66028;53.558;9.950;2023-12-22T11:29:26;11.50;;;1.10;;
77089;SDS011;66028;53.558;9.950;2023-12-22T11:34:20;5.30;;;1.20;;
77089;SDS011;66028;53.558;9.950;2023-12-22T11:36:46;3.97;;;0.52;;
77089;SDS011;66028;53.558;9.950;2023-12-22T11:39:12;5.88;;;0.85;;
77089;SDS011;66028;53.558;9.950;2023-12-22T11:41:39;8.70;;;1.20;;
77089;SDS011;66028;53.558;9.950;2023-12-22T11:44:05;8.65;;;1.77;;
77089;SDS011;66028;53.558;9.950;2023-12-22T11:46:31;8.48;;;1.30;;
77089;SDS011;66028;53.558;9.950;2023-12-22T11:48:58;7.05;;;1.45;;
77089;SDS011;66028;53.558;9.950;2023-12-22T11:51:24;9.70;;;1.43;;
77089;SDS011;66028;53.558;9.950;2023-12-22T11:53:56;5.10;;;1.30;;
77089;SDS011;66028;53.558;9.950;2023-12-22T11:56:22;9.10;;;1.23;;
77089;SDS011;66028;53.558;9.950;2023-12-22T11:58:49;6.50;;;1.45;;
77089;SDS011;66028;53.558;9.950;2023-12-22T12:01:23;11.25;;;2.17;;
77089;SDS011;66028;53.558;9.950;2023-12-22T12:03:51;10.65;;;2.92;;
77089;SDS011;66028;53.558;9.950;2023-12-22T12:08:52;11.27;;;1.70;;
77089;SDS011;66028;53.558;9.950;2023-12-22T12:11:21;7.22;;;1.20;;
77089;SDS011;66028;53.558;9.950;2023-12-22T12:13:48;6.43;;;1.15;;
77089;SDS011;66028;53.558;9.950;2023-12-22T12:16:14;11.55;;;1.30;;
77089;SDS011;66028;53.558;9.950;2023-12-22T12:18:44;10.35;;;1.80;;
77089;SDS011;66028;53.558;9.950;2023-12-22T12:21:10;10.30;;;1.92;;
77089;SDS011;66028;53.558;9.950;2023-12-22T12:23:36;15.10;;;2.47;;
77089;SDS011;66028;53.558;9.950;2023-12-22T12:26:03;13.80;;;2.35;;
77089;SDS011;66028;53.558;9.950;2023-12-22T12:28:31;8.52;;;1.63;;
77089;SDS011;66028;53.558;9.950;2023-12-22T12:30:58;9.98;;;2.17;;
77089;SDS011;66028;53.558;9.950;2023-12-22T12:33:25;6.47;;;0.98;;
77089;SDS011;66028;53.558;9.950;2023-12-22T12:35:50;12.88;;;1.65;;
77089;SDS011;66028;53.558;9.950;2023-12-22T12:38:20;10.43;;;1.30;;
77089;SDS011;66028;53.558;9.950;2023-12-22T12:40:49;11.35;;;2.15;;
77089;SDS011;66028;53.558;9.950;2023-12-22T12:43:16;11.35;;;2.22;;
77089;SDS011;66028;53.558;9.950;2023-12-22T12:45:43;11.98;;;1.92;;
77089;SDS011;66028;53.558;9.950;2023-12-22T12:48:08;10.32;;;1.75;;
77089;SDS011;66028;53.558;9.950;2023-12-22T12:50:34;11.50;;;1.30;;
77089;SDS011;66028;53.558;9.950;2023-12-22T12:52:59;16.53;;;2.80;;
77089;SDS011;66028;53.558;9.950;2023-12-22T12:55:25;9.45;;;2.17;;
77089;SDS011;66028;53.558;9.950;2023-12-22T12:57:51;11.20;;;1.90;;
77089;SDS011;66028;53.558;9.950;2023-12-22T13:03:02;8.77;;;1.60;;
77089;SDS011;66028;53.558;9.950;2023-12-22T13:05:29;5.32;;;1.23;;
77089;SDS011;66028;53.558;9.950;2023-12-22T13:08:08;10.35;;;2.17;;
77089;SDS011;66028;53.558;9.950;2023-12-22T13:10:38;13.65;;;1.45;;
77089;SDS011;66028;53.558;9.950;2023-12-22T13:13:04;13.52;;;1.92;;
77089;SDS011;66028;53.558;9.950;2023-12-22T13:15:29;8.40;;;2.10;;
77089;SDS011;66028;53.558;9.950;2023-12-22T13:17:55;12.88;;;2.28;;
77089;SDS011;66028;53.558;9.950;2023-12-22T13:20:21;8.32;;;1.83;;
77089;SDS011;66028;53.558;9.950;2023-12-22T13:22:46;5.80;;;1.05;;
77089;SDS011;66028;53.558;9.950;2023-12-22T13:25:12;9.48;;;2.15;;
77089;SDS011;66028;53.558;9.950;2023-12-22T13:27:44;7.37;;;1.30;;
77089;SDS011;66028;53.558;9.950;2023-12-22T13:30:11;5.47;;;1.00;;
77089;SDS011;66028;53.558;9.950;2023-12-22T13:32:36;7.40;;;1.25;;
77089;SDS011;66028;53.558;9.950;2023-12-22T13:35:02;8.43;;;2.50;;
77089;SDS011;66028;53.558;9.950;2023-12-22T13:39:55;11.57;;;2.05;;
77089;SDS011;66028;53.558;9.950;2023-12-22T13:42:21;13.00;;;2.00;;
77089;SDS011;66028;53.558;9.950;2023-12-22T13:44:46;15.45;;;2.47;;
77089;SDS011;66028;53.558;9.950;2023-12-22T13:47:17;14.82;;;3.58;;
77089;SDS011;66028;53.558;9.950;2023-12-22T13:49:43;6.07;;;1.23;;
77089;SDS011;66028;53.558;9.950;2023-12-22T13:52:23;6.38;;;1.13;;
77089;SDS011;66028;53.558;9.950;2023-12-22T13:54:50;10.18;;;1.20;;
77089;SDS011;66028;53.558;9.950;2023-12-22T13:57:19;8.88;;;1.30;;
77089;SDS011;66028;53.558;9.950;2023-12-22T13:59:46;9.10;;;1.63;;
77089;SDS011;66028;53.558;9.950;2023-12-22T14:02:12;12.43;;;1.30;;
77089;SDS011;66028;53.558;9.950;2023-12-22T14:04:37;11.50;;;2.10;;
77089;SDS011;66028;53.558;9.950;2023-12-22T14:07:02;6.80;;;1.30;;
77089;SDS011;66028;53.558;9.950;2023-12-22T14:09:27;9.67;;;1.73;;
77089;SDS011;66028;53.558;9.950;2023-12-22T14:11:56;6.15;;;1.40;;
77089;SDS011;66028;53.558;9.950;2023-12-22T14:14:22;9.10;;;2.17;;
77089;SDS011;66028;53.558;9.950;2023-12-22T14:16:47;14.27;;;1.70;;
77089;SDS011;66028;53.558;9.950;2023-12-22T14:19:12;10.40;;;1.97;;
77089;SDS011;66028;53.558;9.950;2023-12-22T14:21:37;12.20;;;1.63;;
77089;SDS011;66028;53.558;9.950;2023-12-22T14:24:03;14.90;;;1.73;;
77089;SDS011;66028;53.558;9.950;2023-12-22T14:26:28;8.23;;;1.37;;
77089;SDS011;66028;53.558;9.950;2023-12-22T14:28:53;8.63;;;1.33;;
77089;SDS011;66028;53.558;9.950;2023-12-22T14:31:18;12.10;;;1.80;;
77089;SDS011;66028;53.558;9.950;2023-12-22T14:33:46;6.07;;;1.20;;
77089;SDS011;66028;53.558;9.950;2023-12-22T14:36:11;12.30;;;2.03;;
77089;SDS011;66028;53.558;9.950;2023-12-22T14:38:36;8.83;;;1.43;;
77089;SDS011;66028;53.558;9.950;2023-12-22T14:41:01;8.23;;;0.87;;
77089;SDS011;66028;53.558;9.950;2023-12-22T14:43:27;4.20;;;1.00;;
77089;SDS011;66028;53.558;9.950;2023-12-22T14:45:52;9.07;;;1.23;;
77089;SDS011;66028;53.558;9.950;2023-12-22T14:48:17;6.67;;;0.73;;
77089;SDS011;66028;53.558;9.950;2023-12-22T14:50:42;11.33;;;1.23;;
77089;SDS011;66028;53.558;9.950;2023-12-22T14:53:08;10.37;;;1.57;;
77089;SDS011;66028;53.558;9.950;2023-12-22T14:55:33;5.60;;;0.90;;
77089;SDS011;66028;53.558;9.950;2023-12-22T14:57:58;9.27;;;1.10;;
77089;SDS011;66028;53.558;9.950;2023-12-22T15:00:24;5.63;;;1.63;;
77089;SDS011;66028;53.558;9.950;2023-12-22T15:02:49;8.23;;;1.13;;
77089;SDS011;66028;53.558;9.950;2023-12-22T15:05:14;7.53;;;1.00;;
77089;SDS011;66028;53.558;9.950;2023-12-22T15:07:39;6.53;;;1.23;;
77089;SDS011;66028;53.558;9.950;2023-12-22T15:10:05;9.77;;;1.37;;